Arbor Hill, Iowa
Current Conditions -  °F | °C
As of 9:55 AM on Friday 31 Oct 2014 (Local Time) from KPRO Reporting Station
Clear Clear  
Wind Chill: 20°   Ceiling: Unl
Heat Index: 32°   Visibility: 10mi
Dew Point: 21°   Wind: 20mph
Humidity: 63%   Direction: 360°N
Pressure: 30.52"   Gusts: 25mph
Location:  41.5397°N, 94.299°W
Report Text: KPRO 311455Z AUTO 36017G22KT 10SM CLR 00/M06 A3052 RMK AO2 T00001063
Loading
Personal Weather Stations






























Interactive Weather Map
Tropical Storm Tracking
New forecast layout! Learn more

10-Day Weather Forecast

Advertisements
Track Severe Weather on mobile